Time;durP1;ratioP1;P1;durP2;ratioP2;P2;SDS_P1;SDS_P2;PMS_P1;PMS_P2;Temp;Humidity;BMP_temperature;BMP_pressure;BME280_temperature;BME280_humidity;BME280_pressure;Samples;Min_cycle;Max_cycle;Signal;HPM_P1;HPM_P2
2022/11/01 00:01:54;;;;;;;16.80;4.53;;;13.10;99.90;;;;;;5038047;28;20094;-66
2022/11/01 00:04:21;;;;;;;21.02;4.57;;;13.00;99.90;;;;;;5055447;28;20049;-66
2022/11/01 00:06:49;;;;;;;17.35;3.97;;;13.00;99.90;;;;;;5053840;28;20499;-66
2022/11/01 00:09:15;;;;;;;14.40;4.57;;;12.90;99.90;;;;;;5054638;28;20038;-66
2022/11/01 00:11:42;;;;;;;15.15;4.05;;;12.90;99.90;;;;;;5038542;28;20048;-66
2022/11/01 00:14:16;;;;;;;11.90;3.65;;;12.80;99.90;;;;;;5054053;28;20049;-66
2022/11/01 00:16:43;;;;;;;14.40;4.30;;;12.70;99.90;;;;;;5037741;28;20048;-66
2022/11/01 00:19:10;;;;;;;17.45;5.07;;;12.60;99.90;;;;;;5070674;28;20518;-66
2022/11/01 00:21:37;;;;;;;16.50;4.30;;;12.50;99.90;;;;;;5053675;28;20045;-67
2022/11/01 00:24:04;;;;;;;26.92;4.63;;;12.50;99.90;;;;;;5054334;28;20083;-66
2022/11/01 00:26:31;;;;;;;17.98;4.25;;;12.40;99.90;;;;;;5037418;28;20041;-66
2022/11/01 00:28:58;;;;;;;18.05;4.25;;;12.40;99.90;;;;;;5054272;28;20127;-66
2022/11/01 00:31:25;;;;;;;20.40;4.47;;;12.30;99.90;;;;;;5055033;28;20044;-66
2022/11/01 00:33:52;;;;;;;19.20;5.13;;;12.20;99.90;;;;;;5054196;28;20072;-66
2022/11/01 00:36:19;;;;;;;18.10;4.45;;;12.30;99.90;;;;;;5055625;28;20617;-66
2022/11/01 00:38:50;;;;;;;24.85;6.20;;;12.20;99.90;;;;;;5037028;28;20049;-66
2022/11/01 00:41:19;;;;;;;10.48;3.90;;;12.20;99.90;;;;;;5037197;28;20110;-66
2022/11/01 00:43:46;;;;;;;19.65;5.28;;;12.10;99.90;;;;;;5055714;28;20124;-66
2022/11/01 00:46:13;;;;;;;26.77;4.78;;;12.20;99.90;;;;;;5054684;28;20052;-66
2022/11/01 00:48:40;;;;;;;23.38;5.95;;;12.20;99.90;;;;;;5036005;28;20049;-67
2022/11/01 00:51:07;;;;;;;21.58;4.80;;;12.20;99.90;;;;;;5053220;28;20051;-66
2022/11/01 00:53:34;;;;;;;18.25;4.38;;;12.10;99.90;;;;;;5054066;28;20106;-66
2022/11/01 00:56:02;;;;;;;13.20;3.97;;;12.00;99.90;;;;;;5054343;28;20464;-66
2022/11/01 00:58:29;;;;;;;16.48;4.72;;;12.00;99.90;;;;;;5053487;28;20315;-66
2022/11/01 01:00:56;;;;;;;16.63;3.58;;;12.00;99.90;;;;;;5053411;28;20087;-66
2022/11/01 01:03:22;;;;;;;19.95;4.47;;;11.90;99.90;;;;;;5052999;28;20127;-67
2022/11/01 01:05:50;;;;;;;9.32;3.38;;;11.90;99.90;;;;;;5054895;28;20381;-66
2022/11/01 01:08:17;;;;;;;9.45;2.67;;;11.80;99.90;;;;;;5052781;28;20508;-66
2022/11/01 01:10:48;;;;;;;12.10;3.95;;;11.80;99.90;;;;;;5054600;28;20543;-66
2022/11/01 01:13:15;;;;;;;17.27;3.42;;;11.80;99.90;;;;;;5053944;28;20044;-66
2022/11/01 01:15:42;;;;;;;15.32;3.90;;;11.80;99.90;;;;;;5052543;28;20094;-66
2022/11/01 01:18:09;;;;;;;9.27;3.25;;;11.80;99.90;;;;;;5036838;28;20080;-66
2022/11/01 01:20:36;;;;;;;11.75;3.60;;;11.80;99.90;;;;;;5052447;28;20080;-66
2022/11/01 01:23:03;;;;;;;12.40;3.50;;;11.70;99.90;;;;;;5052456;28;20477;-66
2022/11/01 01:25:30;;;;;;;13.88;4.72;;;11.70;99.90;;;;;;5052296;28;20501;-66
2022/11/01 01:27:56;;;;;;;15.00;3.63;;;11.70;99.90;;;;;;5053529;28;20087;-66
2022/11/01 01:30:23;;;;;;;13.25;3.00;;;11.70;99.90;;;;;;5054094;28;20069;-66
2022/11/01 01:32:50;;;;;;;13.52;4.13;;;11.70;99.90;;;;;;5054314;28;20118;-66
2022/11/01 01:35:17;;;;;;;13.50;3.92;;;11.80;99.90;;;;;;5052300;28;20056;-66
2022/11/01 01:37:44;;;;;;;15.48;5.65;;;11.80;99.90;;;;;;5052328;28;20045;-66
2022/11/01 01:40:11;;;;;;;13.65;3.65;;;11.80;99.90;;;;;;5036263;28;20068;-66
2022/11/01 01:42:39;;;;;;;12.30;3.45;;;11.80;99.90;;;;;;5053633;28;20374;-66
2022/11/01 01:45:21;;;;;;;17.45;4.80;;;11.80;99.90;;;;;;5036475;28;20074;-66
2022/11/01 01:47:51;;;;;;;22.70;5.28;;;11.80;99.90;;;;;;5054328;28;20045;-66
2022/11/01 01:50:20;;;;;;;;;;;11.80;99.90;;;;;;5052529;28;20387;-66
2022/11/01 01:52:51;;;;;;;17.50;4.20;;;11.80;99.90;;;;;;5085464;28;19947;-66
2022/11/01 01:55:21;;;;;;;21.67;5.88;;;11.80;99.90;;;;;;5052605;28;20041;-74
2022/11/01 01:57:48;;;;;;;15.70;7.00;;;11.90;99.90;;;;;;5035476;28;20052;-66
2022/11/01 02:00:15;;;;;;;9.70;3.25;;;11.90;99.90;;;;;;5053107;28;20041;-67
2022/11/01 02:02:41;;;;;;;14.68;4.00;;;11.90;99.90;;;;;;5053027;28;20476;-66
2022/11/01 02:05:17;;;;;;;19.35;5.13;;;11.80;99.90;;;;;;5051784;28;20079;-66
2022/11/01 02:07:44;;;;;;;14.93;4.45;;;11.90;99.90;;;;;;5051819;28;20602;-66
2022/11/01 02:10:13;;;;;;;19.70;6.03;;;11.90;99.90;;;;;;5051708;28;20048;-66
2022/11/01 02:12:43;;;;;;;22.50;6.05;;;11.90;99.90;;;;;;5052540;28;20103;-66
2022/11/01 02:15:12;;;;;;;19.63;5.93;;;11.90;99.90;;;;;;5052684;28;20041;-66
2022/11/01 02:17:54;;;;;;;29.35;7.93;;;11.90;99.90;;;;;;5051666;28;20453;-67
2022/11/01 02:20:39;;;;;;;21.45;7.07;;;12.00;99.90;;;;;;5035191;28;20064;-67
2022/11/01 02:23:12;;;;;;;21.55;6.00;;;12.10;99.90;;;;;;5053636;28;20099;-67
2022/11/01 02:26:03;;;;;;;16.90;4.20;;;12.10;99.90;;;;;;5052869;28;20144;-67
2022/11/01 02:28:51;;;;;;;18.92;4.88;;;12.10;99.90;;;;;;5052672;28;20103;-67
2022/11/01 02:31:57;;;;;;;11.23;4.10;;;12.10;99.90;;;;;;5053292;28;20072;-67
2022/11/01 02:34:40;;;;;;;9.85;2.75;;;12.20;99.90;;;;;;5051094;28;20071;-67
2022/11/01 02:37:33;;;;;;;9.07;2.97;;;12.20;99.90;;;;;;5052628;28;20072;-67
2022/11/01 02:40:04;;;;;;;7.07;2.03;;;12.30;99.90;;;;;;5048889;28;20362;-67
2022/11/01 02:42:34;;;;;;;10.65;3.25;;;12.40;99.90;;;;;;5051414;28;20045;-67
2022/11/01 02:45:05;;;;;;;9.18;1.83;;;12.40;99.90;;;;;;5052174;28;20103;-67
2022/11/01 02:47:32;;;;;;;3.58;1.58;;;12.40;99.90;;;;;;5035968;28;20048;-67
2022/11/01 02:50:05;;;;;;;4.60;1.77;;;12.50;99.90;;;;;;5051510;28;20056;-67
2022/11/01 02:52:32;;;;;;;5.80;1.58;;;12.50;99.90;;;;;;5051836;28;20408;-67
2022/11/01 02:55:02;;;;;;;4.18;1.10;;;12.60;99.90;;;;;;5051247;28;20072;-67
2022/11/01 02:57:38;;;;;;;5.05;1.77;;;12.60;99.90;;;;;;5051692;28;20048;-67
2022/11/01 03:00:20;;;;;;;3.97;1.65;;;12.50;99.90;;;;;;5052402;28;20435;-67
2022/11/01 03:02:47;;;;;;;4.07;1.85;;;12.50;99.90;;;;;;5034934;28;20535;-66
2022/11/01 03:05:32;;;;;;;4.43;1.10;;;12.50;99.90;;;;;;5035749;28;20041;-67
2022/11/01 03:08:04;;;;;;;5.55;1.58;;;12.40;99.90;;;;;;5034641;28;20477;-66
2022/11/01 03:10:59;;;;;;;5.20;1.30;;;12.40;99.90;;;;;;5034871;28;20437;-67
2022/11/01 03:13:51;;;;;;;6.95;1.88;;;12.30;99.90;;;;;;5054307;28;20052;-66
2022/11/01 03:16:34;;;;;;;5.63;1.63;;;12.20;99.90;;;;;;5055391;28;20057;-66
2022/11/01 03:19:29;;;;;;;6.50;2.38;;;12.10;99.90;;;;;;5056952;28;20045;-66
2022/11/01 03:22:08;;;;;;;10.23;2.17;;;12.10;99.90;;;;;;5057282;28;20357;-66
2022/11/01 03:24:39;;;;;;;6.55;2.22;;;12.00;99.90;;;;;;5038387;28;20091;-66
2022/11/01 03:27:26;;;;;;;11.55;3.08;;;11.90;99.90;;;;;;5038381;28;20052;-66
2022/11/01 03:30:05;;;;;;;9.77;3.33;;;11.80;99.90;;;;;;5056231;28;20041;-66
2022/11/01 03:32:40;;;;;;;11.60;2.70;;;11.70;99.90;;;;;;5055709;28;20045;-66
2022/11/01 03:35:08;;;;;;;13.90;4.18;;;11.60;99.90;;;;;;5039719;28;20114;-66
2022/11/01 03:37:35;;;;;;;12.30;3.50;;;11.50;99.90;;;;;;5038171;28;20045;-66
2022/11/01 03:40:03;;;;;;;14.15;4.55;;;11.40;99.90;;;;;;5038070;28;20045;-66
2022/11/01 03:42:30;;;;;;;20.38;3.97;;;11.30;99.90;;;;;;5054482;28;20053;-66
2022/11/01 03:45:03;;;;;;;14.68;4.57;;;11.20;99.90;;;;;;5038182;28;20045;-66
2022/11/01 03:47:30;;;;;;;20.63;4.82;;;11.20;99.90;;;;;;5054886;28;20056;-66
2022/11/01 03:50:25;;;;;;;17.08;4.05;;;11.20;99.90;;;;;;5038845;28;20080;-66
2022/11/01 03:52:52;;;;;;;9.32;4.10;;;11.20;99.90;;;;;;5054412;28;20539;-67
2022/11/01 03:55:20;;;;;;;11.80;3.90;;;11.10;99.90;;;;;;5038146;28;20120;-66
2022/11/01 03:57:59;;;;;;;15.52;3.60;;;11.10;99.90;;;;;;5055102;28;20053;-66
2022/11/01 04:00:31;;;;;;;18.15;4.03;;;11.10;99.90;;;;;;5040414;28;20048;-67
2022/11/01 04:02:58;;;;;;;17.20;4.20;;;11.10;99.90;;;;;;5039097;28;20420;-67
2022/11/01 04:05:27;;;;;;;11.55;4.20;;;11.10;99.90;;;;;;5038478;28;20071;-67
2022/11/01 04:07:54;;;;;;;14.90;4.68;;;11.10;99.90;;;;;;5054106;28;20041;-67
2022/11/01 04:10:21;;;;;;;18.02;3.92;;;11.10;99.90;;;;;;5053823;28;20075;-67
2022/11/01 04:12:49;;;;;;;20.70;4.28;;;11.10;99.90;;;;;;5055210;28;20391;-67
2022/11/01 04:20:48;;;;;;;11.52;4.07;;;11.20;99.90;;;;;;5054788;28;20114;-67
2022/11/01 04:23:15;;;;;;;15.40;4.25;;;11.20;99.90;;;;;;5052564;28;20049;-67
2022/11/01 04:25:43;;;;;;;13.93;3.53;;;11.20;99.90;;;;;;5053708;28;20076;-67
2022/11/01 04:28:10;;;;;;;16.52;3.83;;;11.20;99.90;;;;;;5037068;28;20075;-67
2022/11/01 04:30:36;;;;;;;16.70;5.55;;;11.20;99.90;;;;;;5053615;28;20481;-67
2022/11/01 04:33:03;;;;;;;16.67;4.35;;;11.30;99.90;;;;;;5054656;28;20048;-67
2022/11/01 04:35:30;;;;;;;10.77;3.78;;;11.30;99.90;;;;;;5053766;28;20081;-67
2022/11/01 04:37:58;;;;;;;11.13;3.45;;;11.30;99.90;;;;;;5053577;28;20041;-67
2022/11/01 04:40:25;;;;;;;16.63;3.38;;;11.40;99.90;;;;;;5053361;28;20041;-67
2022/11/01 04:42:52;;;;;;;22.60;5.10;;;11.40;99.90;;;;;;5054496;28;20366;-67
2022/11/01 04:45:19;;;;;;;13.45;4.00;;;11.40;99.90;;;;;;5053625;28;20041;-67
2022/11/01 04:47:52;;;;;;;14.10;3.92;;;11.50;99.90;;;;;;5053251;28;20186;-67
2022/11/01 04:50:19;;;;;;;15.02;3.15;;;11.50;99.90;;;;;;5053535;28;20144;-67
2022/11/01 04:52:47;;;;;;;15.13;3.95;;;11.60;99.90;;;;;;5053149;28;20099;-67
2022/11/01 04:55:14;;;;;;;16.63;3.17;;;11.60;99.90;;;;;;5054908;28;20045;-67
2022/11/01 04:57:41;;;;;;;12.38;2.92;;;11.60;99.90;;;;;;5053180;28;20052;-67
2022/11/01 05:00:10;;;;;;;16.17;4.95;;;11.60;99.90;;;;;;5053518;28;20469;-67
2022/11/01 05:02:37;;;;;;;20.52;4.72;;;11.70;99.90;;;;;;5053294;28;20076;-67
2022/11/01 05:05:06;;;;;;;18.73;4.13;;;11.70;99.90;;;;;;5053992;28;20041;-67
2022/11/01 05:07:33;;;;;;;15.55;3.58;;;11.70;99.90;;;;;;5053912;28;20037;-67
2022/11/01 05:10:00;;;;;;;10.85;3.20;;;11.70;99.90;;;;;;5052953;28;20487;-67
2022/11/01 05:12:27;;;;;;;12.40;4.10;;;11.70;99.90;;;;;;5052956;28;20044;-65
2022/11/01 05:14:53;;;;;;;14.60;3.45;;;11.70;99.90;;;;;;5053824;28;20044;-67
2022/11/01 05:17:23;;;;;;;17.75;4.38;;;11.70;99.90;;;;;;5052757;28;20041;-67
2022/11/01 05:19:50;;;;;;;16.35;3.58;;;11.80;99.90;;;;;;5052812;28;20056;-67
2022/11/01 05:22:16;;;;;;;10.57;3.83;;;11.80;99.90;;;;;;5052440;28;20041;-67
2022/11/01 05:24:43;;;;;;;18.15;4.78;;;11.90;99.90;;;;;;5052952;28;20060;-67
2022/11/01 05:27:10;;;;;;;12.45;4.18;;;11.90;99.90;;;;;;5036068;28;20456;-67
2022/11/01 05:29:37;;;;;;;18.83;4.22;;;11.90;99.90;;;;;;5036875;28;20049;-67
2022/11/01 05:32:04;;;;;;;19.77;4.78;;;11.90;99.90;;;;;;5052660;28;20053;-66
2022/11/01 05:34:31;;;;;;;20.77;3.95;;;12.00;99.90;;;;;;5053816;28;20114;-67
2022/11/01 05:36:58;;;;;;;20.80;5.53;;;12.00;99.90;;;;;;5052700;28;20080;-67
2022/11/01 05:39:25;;;;;;;17.42;4.53;;;12.00;99.90;;;;;;5053529;28;20041;-67
2022/11/01 05:41:52;;;;;;;15.73;5.38;;;12.00;99.90;;;;;;5053795;28;20045;-67
2022/11/01 05:44:24;;;;;;;16.05;5.40;;;12.00;99.90;;;;;;5054260;28;20045;-65
2022/11/01 05:46:50;;;;;;;19.10;4.20;;;12.00;99.90;;;;;;5054208;28;20041;-65
2022/11/01 05:49:17;;;;;;;20.50;4.75;;;12.00;99.90;;;;;;5053078;28;20095;-65
2022/11/01 05:51:44;;;;;;;19.67;5.18;;;12.00;99.90;;;;;;5036261;28;20091;-65
2022/11/01 05:54:11;;;;;;;22.95;5.40;;;12.00;99.90;;;;;;5054179;28;20052;-65
2022/11/01 05:56:38;;;;;;;25.38;6.65;;;12.00;99.90;;;;;;5051929;28;20052;-65
2022/11/01 05:59:05;;;;;;;24.58;4.68;;;12.00;99.90;;;;;;5051906;28;20041;-65
2022/11/01 06:01:32;;;;;;;23.02;4.68;;;12.10;99.90;;;;;;5052115;28;20115;-66
2022/11/01 06:04:00;;;;;;;16.30;4.95;;;12.10;99.90;;;;;;5053131;28;20366;-65
2022/11/01 06:06:28;;;;;;;17.10;4.40;;;12.20;99.90;;;;;;5053079;28;20091;-66
2022/11/01 06:08:56;;;;;;;15.90;4.70;;;12.20;99.90;;;;;;5051965;28;20086;-65
2022/11/01 06:11:24;;;;;;;20.27;4.97;;;12.30;99.90;;;;;;5052056;28;20132;-65
2022/11/01 06:13:57;;;;;;;17.73;4.80;;;12.30;99.90;;;;;;5052800;28;20049;-65
2022/11/01 06:16:25;;;;;;;18.30;5.13;;;12.30;99.90;;;;;;5036063;28;20074;-66
2022/11/01 06:18:52;;;;;;;15.40;4.30;;;12.30;99.90;;;;;;5051805;28;20477;-67
2022/11/01 06:21:22;;;;;;;23.58;5.18;;;12.40;99.90;;;;;;5035715;28;20047;-67
2022/11/01 06:23:55;;;;;;;22.13;6.50;;;12.40;99.90;;;;;;5051844;28;20045;-67
2022/11/01 06:26:22;;;;;;;15.50;4.72;;;12.30;99.90;;;;;;5053278;28;20071;-67
2022/11/01 06:28:49;;;;;;;25.55;5.65;;;12.40;99.90;;;;;;5051685;28;20051;-67
2022/11/01 06:31:16;;;;;;;21.83;6.03;;;12.40;99.90;;;;;;5053512;28;20045;-67
2022/11/01 06:33:43;;;;;;;21.45;5.72;;;12.40;99.90;;;;;;5052811;28;20040;-67
2022/11/01 06:36:10;;;;;;;21.20;6.63;;;12.40;99.90;;;;;;5051545;28;20087;-67
2022/11/01 06:38:36;;;;;;;25.55;6.00;;;12.40;99.90;;;;;;5053670;28;20052;-67
2022/11/01 06:41:03;;;;;;;20.27;6.03;;;12.50;99.90;;;;;;5051650;28;20052;-67
2022/11/01 06:43:30;;;;;;;21.65;6.05;;;12.50;99.90;;;;;;5053049;28;20049;-67
2022/11/01 06:46:00;;;;;;;23.77;6.78;;;12.60;99.90;;;;;;5051888;28;20098;-67
2022/11/01 06:48:28;;;;;;;18.83;5.07;;;12.70;99.90;;;;;;5055340;28;20049;-67
2022/11/01 06:50:54;;;;;;;18.15;5.72;;;12.70;99.90;;;;;;5039747;28;20114;-67
2022/11/01 06:53:22;;;;;;;25.55;5.53;;;12.70;99.90;;;;;;5055861;28;20120;-67
2022/11/01 06:55:50;;;;;;;27.38;6.25;;;12.70;99.90;;;;;;5056244;28;20110;-67
2022/11/01 06:58:17;;;;;;;29.50;5.82;;;12.70;99.90;;;;;;5039545;28;20057;-67
2022/11/01 07:00:44;;;;;;;27.80;6.05;;;12.70;99.90;;;;;;5056473;28;20060;-66
2022/11/01 07:03:12;;;;;;;30.83;6.85;;;12.90;99.90;;;;;;5056509;28;20067;-65
2022/11/01 07:05:39;;;;;;;25.38;5.50;;;13.00;99.90;;;;;;5055646;28;20056;-66
2022/11/01 07:08:07;;;;;;;25.20;5.68;;;13.10;99.90;;;;;;5056674;28;20477;-66
2022/11/01 07:10:35;;;;;;;22.00;5.90;;;13.20;99.90;;;;;;5039535;28;20465;-66
2022/11/01 07:13:03;;;;;;;20.25;5.60;;;13.20;99.90;;;;;;5055331;28;20111;-66
2022/11/01 07:15:30;;;;;;;22.63;5.43;;;13.30;99.90;;;;;;5055042;28;20076;-66
2022/11/01 07:18:00;;;;;;;22.88;5.22;;;13.30;99.90;;;;;;5055581;28;20381;-66
2022/11/01 07:20:29;;;;;;;30.23;7.97;;;13.30;99.90;;;;;;5055005;28;20053;-66
2022/11/01 07:23:03;;;;;;;26.88;6.82;;;13.30;99.90;;;;;;5055190;28;20044;-67
2022/11/01 07:25:31;;;;;;;75.82;49.53;;;13.30;99.90;;;;;;5055083;28;20080;-63
2022/11/01 07:27:58;;;;;;;27.88;6.88;;;13.30;99.90;;;;;;5054895;28;20040;-65
2022/11/01 07:30:25;;;;;;;18.02;5.78;;;13.30;99.90;;;;;;5054904;28;20041;-66
2022/11/01 07:33:00;;;;;;;17.95;4.75;;;13.30;99.90;;;;;;5054836;28;20041;-67
2022/11/01 07:35:27;;;;;;;18.95;6.22;;;13.40;99.90;;;;;;5054913;28;20384;-66
2022/11/01 07:37:58;;;;;;;77.07;51.33;;;13.40;99.90;;;;;;5054864;28;20045;-63
2022/11/01 07:40:26;;;;;;;43.25;21.77;;;13.50;99.90;;;;;;5054798;28;20049;-64
2022/11/01 07:42:55;;;;;;;27.35;9.52;;;13.50;99.90;;;;;;5054787;28;20087;-63
2022/11/01 07:45:21;;;;;;;22.88;5.60;;;13.50;99.90;;;;;;5054658;28;20049;-63
2022/11/01 07:47:48;;;;;;;20.10;5.10;;;13.60;99.90;;;;;;5054324;28;20051;-65
2022/11/01 07:50:15;;;;;;;24.08;6.05;;;13.60;99.90;;;;;;5038184;28;20056;-64
2022/11/01 07:52:42;;;;;;;23.17;6.18;;;13.60;99.90;;;;;;5055830;28;20427;-64
2022/11/01 07:55:09;;;;;;;19.42;5.80;;;13.60;99.90;;;;;;5054262;28;20449;-64
2022/11/01 07:57:40;;;;;;;28.75;6.38;;;13.60;99.90;;;;;;5054961;28;20127;-65
2022/11/01 08:00:10;;;;;;;20.90;5.47;;;13.60;99.90;;;;;;5054764;28;20118;-65
2022/11/01 08:02:37;;;;;;;23.48;6.03;;;13.60;99.90;;;;;;5054539;28;20419;-66
2022/11/01 08:05:05;;;;;;;21.17;5.00;;;13.60;99.90;;;;;;5054931;28;20056;-64
2022/11/01 08:07:37;;;;;;;29.60;6.28;;;13.70;99.90;;;;;;5055122;28;20478;-65
2022/11/01 08:10:06;;;;;;;26.13;6.53;;;13.80;99.90;;;;;;5055071;28;20056;-64
2022/11/01 08:12:33;;;;;;;17.52;4.95;;;13.90;99.90;;;;;;5053833;28;20075;-65
2022/11/01 08:15:01;;;;;;;36.67;19.67;;;14.00;99.90;;;;;;5037361;28;20037;-63
2022/11/01 08:17:28;;;;;;;28.45;6.90;;;14.10;99.90;;;;;;5055026;28;20052;-65
2022/11/01 08:19:55;;;;;;;20.65;4.53;;;14.20;99.90;;;;;;5053425;28;20473;-63
2022/11/01 08:22:22;;;;;;;23.90;7.47;;;14.20;99.90;;;;;;5053734;28;20170;-62
2022/11/01 08:24:49;;;;;;;20.27;5.95;;;14.20;99.90;;;;;;5055079;28;20107;-63
2022/11/01 08:27:17;;;;;;;21.45;5.20;;;14.20;99.90;;;;;;5053928;28;20041;-64
2022/11/01 08:29:44;;;;;;;22.43;6.37;;;14.30;99.90;;;;;;5054438;28;20051;-63
2022/11/01 08:32:11;;;;;;;21.33;8.93;;;14.40;99.90;;;;;;5053040;28;20047;-64
2022/11/01 08:34:38;;;;;;;18.77;5.80;;;14.50;99.90;;;;;;5053079;28;20045;-62
2022/11/01 08:37:05;;;;;;;18.92;6.13;;;14.50;99.90;;;;;;5054886;28;20303;-64
2022/11/01 08:39:32;;;;;;;22.25;8.05;;;14.50;99.90;;;;;;5053985;28;20461;-62
2022/11/01 08:41:59;;;;;;;15.23;4.85;;;14.60;99.90;;;;;;5054460;28;20435;-65
2022/11/01 08:44:26;;;;;;;15.10;4.28;;;14.70;99.90;;;;;;5036551;28;20048;-64
2022/11/01 08:46:53;;;;;;;22.17;5.78;;;14.70;99.90;;;;;;5055602;28;20114;-63
2022/11/01 08:49:20;;;;;;;19.35;5.13;;;14.70;99.90;;;;;;5053249;28;20401;-64
2022/11/01 08:51:47;;;;;;;20.45;5.20;;;14.70;99.90;;;;;;5053260;28;20045;-63
2022/11/01 08:54:14;;;;;;;16.90;4.72;;;14.70;99.90;;;;;;5055170;28;20377;-63
2022/11/01 08:56:41;;;;;;;20.15;5.63;;;14.60;99.90;;;;;;5052695;28;20041;-64
2022/11/01 08:59:08;;;;;;;21.38;4.95;;;14.50;99.90;;;;;;5052919;28;20462;-64
2022/11/01 09:01:35;;;;;;;13.57;4.90;;;14.40;99.90;;;;;;5053977;28;20045;-63
2022/11/01 09:04:02;;;;;;;21.40;4.88;;;14.30;99.90;;;;;;5052799;28;20037;-63
2022/11/01 09:06:29;;;;;;;16.60;5.47;;;14.20;99.90;;;;;;5052548;28;20119;-62
2022/11/01 09:09:02;;;;;;;17.08;5.05;;;14.10;99.90;;;;;;5054086;28;20096;-67
2022/11/01 09:11:29;;;;;;;16.48;3.70;;;14.10;99.90;;;;;;5035956;28;20091;-66
2022/11/01 09:13:57;;;;;;;16.15;4.78;;;14.10;99.90;;;;;;5053591;28;20044;-67
2022/11/01 09:16:24;;;;;;;81.90;51.75;;;14.10;99.90;;;;;;5035733;28;20045;-63
2022/11/01 09:18:51;;;;;;;29.50;13.43;;;14.20;99.90;;;;;;5037147;28;20052;-64
2022/11/01 09:21:18;;;;;;;17.42;5.53;;;14.20;99.90;;;;;;5069891;28;20053;-63
2022/11/01 09:23:45;;;;;;;20.27;6.13;;;14.20;99.90;;;;;;5053786;28;20041;-62
2022/11/01 09:26:12;;;;;;;13.95;4.80;;;14.30;99.90;;;;;;5052108;28;20075;-62
2022/11/01 09:28:39;;;;;;;27.80;5.75;;;14.30;99.90;;;;;;5053600;28;20485;-63
2022/11/01 09:31:07;;;;;;;26.35;5.93;;;14.30;99.90;;;;;;5052841;28;20122;-64
2022/11/01 09:33:46;;;;;;;19.50;5.28;;;14.30;99.90;;;;;;5052089;28;20044;-62
2022/11/01 09:36:13;;;;;;;21.30;5.18;;;14.20;99.90;;;;;;5054112;28;20049;-61
2022/11/01 09:38:40;;;;;;;19.08;5.40;;;14.20;99.90;;;;;;5053368;28;20048;-61
2022/11/01 09:41:31;;;;;;;24.08;6.05;;;14.20;99.90;;;;;;5051960;28;20110;-63
2022/11/01 09:43:59;;;;;;;21.42;4.95;;;14.20;99.90;;;;;;5052047;28;20098;-63
2022/11/01 09:46:27;;;;;;;21.30;4.57;;;14.30;99.90;;;;;;5051821;28;20048;-65
2022/11/01 09:48:55;;;;;;;22.77;5.70;;;14.40;99.90;;;;;;5051713;28;20040;-62
2022/11/01 09:51:23;;;;;;;20.02;5.00;;;14.40;99.90;;;;;;5051780;28;20136;-63
2022/11/01 09:53:55;;;;;;;16.13;5.53;;;14.50;99.90;;;;;;5052470;28;20416;-63
2022/11/01 09:56:46;;;;;;;20.63;5.78;;;14.40;99.90;;;;;;5051548;28;20052;-65
2022/11/01 09:59:35;;;;;;;20.52;5.43;;;14.40;99.90;;;;;;5043018;28;20504;-65
2022/11/01 10:02:20;;;;;;;17.88;4.90;;;14.40;99.90;;;;;;5036157;28;20056;-64
2022/11/01 10:05:18;;;;;;;17.75;4.85;;;14.30;99.90;;;;;;5052414;28;20048;-64
2022/11/01 10:07:57;;;;;;;20.27;4.60;;;14.20;99.90;;;;;;5052218;28;20064;-65
2022/11/01 10:10:30;;;;;;;15.73;4.78;;;14.10;99.90;;;;;;5053922;28;20385;-65
2022/11/01 10:13:24;;;;;;;19.05;5.07;;;14.00;99.90;;;;;;5052842;28;20531;-65
2022/11/01 10:16:26;;;;;;;16.40;4.32;;;13.90;99.90;;;;;;5052664;28;20538;-65
2022/11/01 10:19:16;;;;;;;15.32;4.03;;;13.80;99.90;;;;;;5051939;28;20045;-65
2022/11/01 10:21:51;;;;;;;18.08;4.78;;;13.80;99.90;;;;;;5052656;28;20053;-63
2022/11/01 10:24:37;;;;;;;14.85;5.13;;;13.70;99.90;;;;;;5052044;28;20095;-64
2022/11/01 10:27:23;;;;;;;13.48;3.65;;;13.70;99.90;;;;;;5053485;28;20075;-64
2022/11/01 10:30:11;;;;;;;17.25;4.32;;;13.70;99.90;;;;;;5052758;28;20049;-67
2022/11/01 10:32:46;;;;;;;12.93;4.15;;;13.80;99.90;;;;;;5034776;28;20090;-66
2022/11/01 10:35:20;;;;;;;18.25;5.45;;;13.80;99.90;;;;;;5053293;28;20105;-65
2022/11/01 10:37:59;;;;;;;15.63;5.03;;;13.70;99.90;;;;;;5051322;28;20053;-68
2022/11/01 10:40:55;;;;;;;10.35;2.55;;;13.70;99.90;;;;;;5051405;28;20132;-65
2022/11/01 10:43:23;;;;;;;6.32;2.35;;;13.70;99.90;;;;;;5052190;28;20083;-67
2022/11/01 10:45:51;;;;;;;10.68;3.20;;;13.60;99.90;;;;;;5035546;28;20045;-64
2022/11/01 10:48:43;;;;;;;8.97;2.93;;;13.60;99.90;;;;;;5051317;28;20041;-67
2022/11/01 10:51:10;;;;;;;9.55;2.65;;;13.50;99.90;;;;;;5052707;28;20091;-68
2022/11/01 10:53:43;;;;;;;9.98;2.45;;;13.50;99.90;;;;;;5051399;28;20075;-66
2022/11/01 10:56:13;;;;;;;10.73;3.10;;;13.60;99.90;;;;;;5051233;28;20049;-65
2022/11/01 10:58:53;;;;;;;11.05;2.80;;;13.60;99.90;;;;;;5052371;28;20048;-63
2022/11/01 11:01:22;;;;;;;12.32;3.13;;;13.60;99.90;;;;;;5035488;28;20534;-65
2022/11/01 11:03:49;;;;;;;;;;;13.60;99.90;;;;;;5051516;28;20477;-64
2022/11/01 11:06:16;;;;;;;6.60;2.60;;;13.60;99.90;;;;;;5084247;28;20316;-65
2022/11/01 11:08:44;;;;;;;8.93;2.22;;;13.70;99.90;;;;;;5050952;28;20044;-65
2022/11/01 11:11:13;;;;;;;8.82;2.53;;;13.80;99.90;;;;;;5051250;28;20060;-67
2022/11/01 11:13:45;;;;;;;11.25;2.35;;;13.80;99.90;;;;;;5051154;28;20091;-66
2022/11/01 11:16:55;;;;;;;11.50;2.85;;;13.80;99.90;;;;;;5050753;28;20102;-66
2022/11/01 11:19:29;;;;;;;13.18;2.78;;;13.80;99.90;;;;;;5048654;28;20056;-65
2022/11/01 11:21:57;;;;;;;8.20;2.58;;;13.90;99.90;;;;;;5052831;28;20048;-66
2022/11/01 11:24:25;;;;;;;12.23;2.67;;;13.80;99.90;;;;;;5050834;28;20045;-69
2022/11/01 11:26:54;;;;;;;9.30;3.08;;;13.80;99.90;;;;;;5051124;28;20099;-70
2022/11/01 11:29:33;;;;;;;12.80;3.22;;;13.90;99.90;;;;;;5051836;28;20127;-65
2022/11/01 11:32:00;;;;;;;13.55;4.32;;;13.90;99.90;;;;;;5051807;28;20122;-68
2022/11/01 11:34:32;;;;;;;18.60;4.78;;;13.90;99.90;;;;;;5054041;28;20377;-71
2022/11/01 11:37:02;;;;;;;13.73;3.28;;;14.00;99.90;;;;;;5038345;28;20048;-64
2022/11/01 11:39:31;;;;;;;17.50;4.28;;;14.00;99.90;;;;;;5054222;28;20090;-68
2022/11/01 11:42:17;;;;;;;17.35;4.10;;;14.10;99.90;;;;;;5054017;28;20045;-65
2022/11/01 11:44:49;;;;;;;14.38;4.10;;;14.20;99.90;;;;;;5055632;28;20049;-64
2022/11/01 11:47:21;;;;;;;10.63;3.53;;;14.20;99.90;;;;;;5039292;28;20465;-65
2022/11/01 11:49:49;;;;;;;17.38;4.22;;;14.30;99.90;;;;;;5054027;28;20388;-65
2022/11/01 11:52:18;;;;;;;9.48;3.25;;;14.30;99.90;;;;;;5055078;28;20044;-65
2022/11/01 11:54:45;;;;;;;;;;;14.40;99.90;;;;;;5055384;28;20122;-64
2022/11/01 11:57:16;;;;;;;32.17;24.13;;;14.40;99.90;;;;;;5087450;28;19967;-65
2022/11/01 12:00:12;;;;;;;15.40;7.47;;;14.40;99.90;;;;;;5054123;28;20045;-64
2022/11/01 12:02:39;;;;;;;8.18;3.53;;;14.50;99.90;;;;;;5054299;28;20465;-64
2022/11/01 12:05:14;;;;;;;13.85;4.15;;;14.40;99.90;;;;;;5053697;28;20041;-68
2022/11/01 12:07:59;;;;;;;9.80;3.13;;;14.50;99.90;;;;;;5054845;28;20425;-69
2022/11/01 12:10:36;;;;;;;10.55;3.30;;;14.50;99.90;;;;;;5053738;28;20144;-64
2022/11/01 12:13:29;;;;;;;11.40;2.92;;;14.50;99.90;;;;;;5053896;28;20477;-64
2022/11/01 12:16:16;;;;;;;12.57;2.97;;;14.50;99.90;;;;;;5040244;28;20044;-65
2022/11/01 12:18:52;;;;;;;9.52;3.90;;;14.50;99.90;;;;;;5054062;28;20148;-66
2022/11/01 12:21:33;;;;;;;12.65;3.22;;;14.60;99.90;;;;;;5053632;28;20044;-67
2022/11/01 12:24:05;;;;;;;10.25;4.38;;;14.70;99.90;;;;;;5054733;28;20091;-65
2022/11/01 12:26:34;;;;;;;14.75;3.58;;;14.70;99.90;;;;;;5038037;28;20492;-63
2022/11/01 12:29:46;;;;;;;13.10;4.25;;;14.70;99.90;;;;;;5054004;28;20041;-63
2022/11/01 12:32:14;;;;;;;14.43;3.65;;;14.70;99.90;;;;;;5038500;28;20056;-64
2022/11/01 12:34:41;;;;;;;25.85;5.18;;;14.90;99.90;;;;;;5055076;28;20057;-65
2022/11/01 12:37:13;;;;;;;10.85;3.42;;;15.10;99.90;;;;;;5053390;28;20123;-65
2022/11/01 12:39:57;;;;;;;15.07;4.32;;;15.30;99.90;;;;;;5036893;28;20037;-67
2022/11/01 12:42:40;;;;;;;15.07;3.88;;;15.50;99.90;;;;;;5055387;28;20115;-64
2022/11/01 12:45:11;;;;;;;16.10;5.53;;;15.60;99.90;;;;;;5035819;28;20102;-68
2022/11/01 12:47:41;;;;;;;19.60;4.88;;;15.60;99.90;;;;;;5037619;28;20040;-68
2022/11/01 12:50:22;;;;;;;19.30;4.68;;;15.60;99.90;;;;;;5053326;28;20061;-68
2022/11/01 12:52:57;;;;;;;12.30;4.63;;;15.50;99.90;;;;;;5053619;28;20526;-67
2022/11/01 12:55:50;;;;;;;18.17;5.20;;;15.50;99.90;;;;;;5054859;28;20041;-67
2022/11/01 12:58:18;;;;;;;16.63;5.47;;;15.40;99.90;;;;;;5053932;28;20045;-66
2022/11/01 13:00:56;;;;;;;17.45;6.00;;;15.50;99.90;;;;;;5054145;28;20056;-67
2022/11/01 13:03:28;;;;;;;21.52;6.65;;;15.60;99.90;;;;;;5054394;28;20045;-64
2022/11/01 13:05:57;;;;;;;62.95;46.28;;;15.70;99.90;;;;;;5054858;28;20422;-67